Awendaw, SC (29429)

5:11 AM EDT on August 30, 2016 (GMT -0400)
Wellesley Place - Park West | | Change Station
Active Advisory: Coastal Hazard Statement Active Notice: Local Storm Report

Elev 34 ft 32.89 °N, 79.79 °W | Updated 21 seconds ago

Partly Cloudy
Partly Cloudy
73.9 °F
Feels Like 73.9 °F
N
1.1
Wind Variable Wind from NE
Gusts 2.5 mph

Today
High -- | Low -- °F
--% Chance of Precip.
Yesterday
High -- | Low -- °F
Precip. -- in
Pressure 30.01 in
Visibility 10.0 miles
Clouds Few 3000 ft
Few 8000 ft
Few 25000 ft
Dew Point 74 °F
Humidity 99%
Rainfall 0.00 in
Snow Depth Not available.
6:52 AM 7:45 PM
Waning Crescent, 4% visible
METAR KCHS 300856Z 36005KT 10SM FEW030 FEW080 FEW250 24/22 A3001 RMK AO2 SLP162 OCNL LTGICCC DSNT SE-SW CB DSNT SE-SW T02390222 58007
Pressure 30.01 in
Visibility 10.0 miles
Clouds Few 3000 ft
Few 8000 ft
Few 25000 ft
Dew Point 74 °F
Humidity 99%
Rainfall 0.00 in
Snow Depth Not available.
6:52 AM 7:45 PM
Waning Crescent, 4% visible
METAR KCHS 300856Z 36005KT 10SM FEW030 FEW080 FEW250 24/22 A3001 RMK AO2 SLP162 OCNL LTGICCC DSNT SE-SW CB DSNT SE-SW T02390222 58007

10-Day Weather Forecast

Almanac

Astronomy

Aug. 30, 2016 Rise Set
Actual Time
Civil Twilight
Nautical Twilight
Astronomical Twilight
Moon
Length of Visible Light
Length of Day
Tomorrow will be .
, % of the Moon is Illuminated

Today's Extremes

State Highs State Lows

Community

WunderPhotos

Upload Photos

1,935,795 photos uploaded!

WunderBlog® & News

Nearby

Air Quality

  Air Quality AQ Index Pollutant
Not available.

Snow Depth

Station Depth Elevation

Earthquake Activity

City Distance Mag. Time & Date
Minimum magnitude displayed is 2.5.

Coastal Water Temperatures

Place Temperature

Stations

Nearby Weather Stations

Station Location Temp. Windchill Dew Point Humidity Wind Precip. Elev Updated Type
                   

Watches & Warnings

Coastal Hazard Statement
Issued: 4:07 AM EDT Aug. 30, 2016 – National Weather Service

... High rip current risk remains in effect through this evening...

* rip currents... wind and wave conditions support the
development of very strong rip currents. These rip currents
will be life threatening to anyone who enters the surf.

Precautionary/preparedness actions...

No one should enter the surf due to life threatening rip
currents.